createdAt,value
2018-02-01T00:00:09.806Z,0.00
2018-02-01T00:01:09.833Z,0.00
2018-02-01T00:02:09.849Z,0.00
2018-02-01T00:03:09.883Z,0.00
2018-02-01T00:04:09.896Z,0.00
2018-02-01T00:05:09.941Z,0.00
2018-02-01T00:06:10.037Z,0.00
2018-02-01T00:07:09.989Z,0.00
2018-02-01T00:08:10.080Z,0.00
2018-02-01T00:09:10.018Z,0.00
2018-02-01T00:10:10.036Z,0.00
2018-02-01T00:11:10.057Z,0.00
2018-02-01T00:12:10.086Z,0.00
2018-02-01T00:13:10.100Z,0.00
2018-02-01T00:14:10.127Z,0.00
2018-02-01T00:15:10.166Z,0.00
2018-02-01T00:16:10.168Z,0.00
2018-02-01T00:17:10.191Z,0.00
2018-02-01T00:18:10.231Z,0.00
2018-02-01T00:19:10.251Z,0.00
2018-02-01T00:20:10.270Z,0.00
2018-02-01T00:21:10.295Z,0.00
2018-02-01T00:22:10.322Z,0.00
2018-02-01T00:23:10.325Z,0.00
2018-02-01T00:24:10.352Z,0.00
2018-02-01T00:25:10.388Z,0.00
2018-02-01T00:26:10.400Z,0.00
2018-02-01T00:27:10.417Z,0.00
2018-02-01T00:28:10.435Z,0.00
2018-02-01T00:29:10.464Z,0.00
2018-02-01T00:30:10.603Z,0.00
2018-02-01T00:31:10.518Z,0.00
2018-02-01T00:32:10.533Z,0.00
2018-02-01T00:33:10.548Z,0.00
2018-02-01T00:34:10.572Z,0.00
2018-02-01T00:35:10.600Z,0.00
2018-02-01T00:36:10.623Z,0.00
2018-02-01T00:37:10.642Z,0.00
2018-02-01T00:38:10.660Z,0.00
2018-02-01T00:39:10.685Z,0.00
2018-02-01T00:40:10.708Z,0.00
2018-02-01T00:41:10.728Z,0.00
2018-02-01T00:42:10.765Z,0.00
2018-02-01T00:43:10.776Z,0.00
2018-02-01T00:44:10.798Z,0.00
2018-02-01T00:45:10.822Z,0.00
2018-02-01T00:46:10.840Z,0.00
2018-02-01T00:47:10.863Z,0.00
2018-02-01T00:48:10.895Z,0.00
2018-02-01T00:49:10.911Z,0.00
2018-02-01T00:50:10.932Z,0.00
2018-02-01T00:51:10.954Z,0.00
2018-02-01T00:52:10.975Z,0.00
2018-02-01T00:53:10.995Z,0.00
2018-02-01T00:54:11.027Z,0.00
2018-02-01T00:55:11.041Z,0.00
2018-02-01T00:56:11.064Z,0.00
2018-02-01T00:57:11.092Z,0.00
2018-02-01T00:58:11.107Z,0.00
2018-02-01T00:59:11.140Z,0.00
2018-02-01T01:00:11.156Z,0.00
2018-02-01T01:01:11.181Z,0.00
2018-02-01T01:02:11.198Z,0.00
2018-02-01T01:03:11.220Z,0.00
2018-02-01T01:04:11.261Z,0.00
2018-02-01T01:05:11.265Z,0.00
2018-02-01T01:06:11.289Z,0.00
2018-02-01T01:07:11.338Z,0.00
2018-02-01T01:08:11.342Z,0.00
2018-02-01T01:09:11.373Z,0.00
2018-02-01T01:10:11.375Z,0.00
2018-02-01T01:11:11.404Z,0.00
2018-02-01T01:12:11.426Z,0.00
2018-02-01T01:13:11.447Z,0.00
2018-02-01T01:14:11.465Z,0.00
2018-02-01T01:15:11.489Z,0.00
2018-02-01T01:16:11.512Z,0.00
2018-02-01T01:17:11.528Z,0.00
2018-02-01T01:18:11.559Z,0.00
2018-02-01T01:19:11.578Z,0.00
2018-02-01T01:20:11.598Z,0.00
2018-02-01T01:21:11.629Z,0.00
2018-02-01T01:22:11.655Z,0.00
2018-02-01T01:23:11.667Z,0.00
2018-02-01T01:24:11.700Z,0.00
2018-02-01T01:25:11.712Z,0.00
2018-02-01T01:26:11.730Z,0.00
2018-02-01T01:27:11.752Z,0.00
2018-02-01T01:28:11.779Z,0.00
2018-02-01T01:29:11.808Z,0.00
2018-02-01T01:30:11.821Z,0.00
2018-02-01T01:31:11.856Z,0.00
2018-02-01T01:32:11.874Z,0.00
2018-02-01T01:33:11.899Z,0.00
2018-02-01T01:34:11.910Z,0.00
2018-02-01T01:35:11.934Z,0.00
2018-02-01T01:36:11.962Z,0.00
2018-02-01T01:37:11.974Z,0.00
2018-02-01T01:38:11.999Z,0.00
2018-02-01T01:39:12.024Z,0.00
2018-02-01T01:40:12.046Z,0.00
2018-02-01T01:41:12.064Z,0.00
2018-02-01T01:42:12.108Z,0.00
2018-02-01T01:43:12.116Z,0.00
2018-02-01T01:44:12.144Z,0.00
2018-02-01T01:45:12.154Z,0.00
2018-02-01T01:46:12.180Z,0.00
2018-02-01T01:47:12.203Z,0.00
2018-02-01T01:48:12.229Z,0.00
2018-02-01T01:49:12.240Z,0.00
2018-02-01T01:50:12.264Z,0.00
2018-02-01T01:51:12.292Z,0.00
2018-02-01T01:52:12.310Z,0.00
2018-02-01T01:53:12.340Z,0.00
2018-02-01T01:54:12.349Z,0.00
2018-02-01T01:55:12.410Z,0.00
2018-02-01T01:56:12.402Z,0.00
2018-02-01T01:57:12.423Z,0.00
2018-02-01T01:58:12.443Z,0.00
2018-02-01T01:59:12.466Z,0.00
2018-02-01T02:00:12.490Z,0.00
2018-02-01T02:01:12.506Z,0.00
2018-02-01T02:02:12.535Z,0.00
2018-02-01T02:03:12.550Z,0.00
2018-02-01T02:04:12.588Z,0.00
2018-02-01T02:05:12.595Z,0.00
2018-02-01T02:06:12.638Z,0.00
2018-02-01T02:07:12.647Z,0.00
2018-02-01T02:08:12.673Z,0.00
2018-02-01T02:09:12.692Z,0.00
2018-02-01T02:10:12.707Z,0.00
2018-02-01T02:11:12.740Z,0.00
2018-02-01T02:12:12.751Z,0.00
2018-02-01T02:13:12.771Z,0.00
2018-02-01T02:14:12.800Z,0.00
2018-02-01T02:15:12.817Z,0.00
2018-02-01T02:16:12.842Z,0.00
2018-02-01T02:17:12.857Z,0.00
2018-02-01T02:18:12.889Z,0.00
2018-02-01T02:19:12.906Z,0.00
2018-02-01T02:20:12.939Z,0.00
2018-02-01T02:21:12.948Z,0.00
2018-02-01T02:22:12.975Z,0.00
2018-02-01T02:23:12.993Z,0.00
2018-02-01T02:24:13.012Z,0.00
2018-02-01T02:25:13.040Z,0.00
2018-02-01T02:26:13.060Z,0.00
2018-02-01T02:27:13.088Z,0.00
2018-02-01T02:28:13.100Z,0.00
2018-02-01T02:29:13.121Z,0.00
2018-02-01T02:30:13.146Z,0.00
2018-02-01T02:31:13.183Z,0.00
2018-02-01T02:32:13.192Z,0.00
2018-02-01T02:33:13.217Z,0.00
2018-02-01T02:34:13.239Z,0.00
2018-02-01T02:35:13.265Z,0.00
2018-02-01T02:36:13.274Z,0.00
2018-02-01T02:37:13.301Z,0.00
2018-02-01T02:38:13.339Z,0.00
2018-02-01T02:39:13.346Z,0.00
2018-02-01T02:40:13.361Z,0.00
2018-02-01T02:41:13.386Z,0.00
2018-02-01T02:42:13.424Z,0.00
2018-02-01T02:43:13.431Z,0.00
2018-02-01T02:44:13.452Z,0.00
2018-02-01T02:45:13.485Z,0.00
2018-02-01T02:46:13.498Z,0.00
2018-02-01T02:47:13.526Z,0.00
2018-02-01T02:48:13.552Z,0.00
2018-02-01T02:49:13.575Z,0.00
2018-02-01T02:50:13.581Z,0.00
2018-02-01T02:51:13.610Z,0.00
2018-02-01T02:52:13.639Z,0.00
2018-02-01T02:53:13.649Z,0.00
2018-02-01T02:54:13.684Z,0.00
2018-02-01T02:55:13.701Z,0.00
2018-02-01T02:56:13.764Z,0.00
2018-02-01T02:57:13.749Z,0.00
2018-02-01T02:58:13.766Z,0.00
2018-02-01T02:59:13.785Z,0.00
2018-02-01T03:00:13.802Z,0.00
2018-02-01T03:01:13.828Z,0.00
2018-02-01T03:02:13.854Z,0.00
2018-02-01T03:03:13.874Z,0.00
2018-02-01T03:04:13.888Z,0.00
2018-02-01T03:05:14.019Z,0.00
2018-02-01T03:06:13.938Z,0.00
2018-02-01T03:07:13.964Z,0.00
2018-02-01T03:08:13.980Z,0.00
2018-02-01T03:09:14.014Z,0.00
2018-02-01T03:10:14.024Z,0.00
2018-02-01T03:11:14.051Z,0.00
2018-02-01T03:12:14.087Z,0.00
2018-02-01T03:13:14.090Z,0.00
2018-02-01T03:14:14.111Z,0.00
2018-02-01T03:15:14.130Z,0.00
2018-02-01T03:16:14.163Z,0.00
2018-02-01T03:17:14.177Z,0.00
2018-02-01T03:18:14.251Z,0.00
2018-02-01T03:19:14.218Z,0.00
2018-02-01T03:20:14.244Z,0.00
2018-02-01T03:21:14.264Z,0.00
2018-02-01T03:22:14.284Z,0.00
2018-02-01T03:23:14.311Z,0.00
2018-02-01T03:24:14.330Z,0.00
2018-02-01T03:25:14.348Z,0.00
2018-02-01T03:26:14.374Z,0.00
2018-02-01T03:27:14.394Z,0.00
2018-02-01T03:28:14.423Z,0.00
2018-02-01T03:29:14.460Z,0.00
2018-02-01T03:30:14.464Z,0.00
2018-02-01T03:31:14.489Z,0.00
2018-02-01T03:32:14.502Z,0.00
2018-02-01T03:33:14.540Z,0.00
2018-02-01T03:34:14.545Z,0.00
2018-02-01T03:35:14.574Z,0.00
2018-02-01T03:36:14.595Z,0.00
2018-02-01T03:37:14.618Z,0.00
2018-02-01T03:38:14.633Z,0.00
2018-02-01T03:39:14.669Z,0.00
2018-02-01T03:40:14.681Z,0.00
2018-02-01T03:41:14.702Z,0.00
2018-02-01T03:42:14.725Z,0.00
2018-02-01T03:43:14.744Z,0.00
2018-02-01T03:44:14.768Z,0.00
2018-02-01T03:45:14.787Z,0.00
2018-02-01T03:46:14.806Z,0.00
2018-02-01T03:47:14.832Z,0.00
2018-02-01T03:48:14.861Z,0.00
2018-02-01T03:49:14.877Z,0.00
2018-02-01T03:50:14.893Z,0.00
2018-02-01T03:51:14.927Z,0.00
2018-02-01T03:52:14.939Z,0.00
2018-02-01T03:53:14.971Z,0.00
2018-02-01T03:54:14.983Z,0.00
2018-02-01T03:55:15.006Z,0.00
2018-02-01T03:56:15.026Z,0.00
2018-02-01T03:57:15.046Z,0.00
2018-02-01T03:58:15.074Z,0.00
2018-02-01T03:59:15.092Z,0.00
2018-02-01T04:00:15.111Z,0.00
2018-02-01T04:01:15.137Z,0.00
2018-02-01T04:02:15.159Z,0.00
2018-02-01T04:03:15.176Z,0.00
2018-02-01T04:04:15.200Z,0.00
2018-02-01T04:05:15.228Z,0.00
2018-02-01T04:06:15.243Z,0.00
2018-02-01T04:07:15.265Z,0.00
2018-02-01T04:08:15.288Z,0.00
2018-02-01T04:09:15.309Z,0.00
2018-02-01T04:10:15.343Z,0.00
2018-02-01T04:11:15.353Z,0.00
2018-02-01T04:12:15.379Z,0.00
2018-02-01T04:13:15.395Z,0.00
2018-02-01T04:14:15.420Z,0.00
2018-02-01T04:15:15.437Z,0.00
2018-02-01T04:16:15.475Z,0.00
2018-02-01T04:17:15.481Z,0.00
2018-02-01T04:18:15.518Z,0.00
2018-02-01T04:19:15.527Z,0.00
2018-02-01T04:20:15.546Z,0.00
2018-02-01T04:21:15.579Z,0.00
2018-02-01T04:22:15.592Z,0.00
2018-02-01T04:23:15.616Z,0.00
2018-02-01T04:24:15.641Z,0.00
2018-02-01T04:25:15.661Z,0.00
2018-02-01T04:26:15.683Z,0.00
2018-02-01T04:27:15.701Z,0.00
2018-02-01T04:28:16.385Z,0.00
2018-02-01T04:29:15.740Z,0.00
2018-02-01T04:30:15.772Z,0.00
2018-02-01T04:31:15.785Z,0.00
2018-02-01T04:32:15.808Z,0.00
2018-02-01T04:33:15.833Z,0.00
2018-02-01T04:34:15.855Z,0.00
2018-02-01T04:35:15.876Z,0.00
2018-02-01T04:36:15.897Z,0.00
2018-02-01T04:37:15.920Z,0.00
2018-02-01T04:38:15.951Z,0.00
2018-02-01T04:39:15.962Z,0.00
2018-02-01T04:40:15.986Z,0.00
2018-02-01T04:41:16.885Z,0.00
2018-02-01T04:42:16.039Z,0.00
2018-02-01T04:43:16.051Z,0.00
2018-02-01T04:44:16.075Z,0.00
2018-02-01T04:45:16.093Z,0.00
2018-02-01T04:46:16.114Z,0.00
2018-02-01T04:47:16.141Z,0.00
2018-02-01T04:48:16.174Z,0.00
2018-02-01T04:49:16.188Z,0.00
2018-02-01T04:50:16.197Z,0.00
2018-02-01T04:51:16.227Z,0.00
2018-02-01T04:52:16.243Z,0.00
2018-02-01T04:53:16.265Z,0.00
2018-02-01T04:54:16.381Z,0.00
2018-02-01T04:55:16.317Z,0.00
2018-02-01T04:56:16.341Z,0.00
2018-02-01T04:57:16.358Z,0.00
2018-02-01T04:58:16.385Z,0.00
2018-02-01T04:59:16.397Z,0.00
2018-02-01T05:00:16.427Z,0.00
2018-02-01T05:01:16.447Z,0.00
2018-02-01T05:02:16.461Z,0.00
2018-02-01T05:03:16.489Z,0.00
2018-02-01T05:04:16.503Z,0.00
2018-02-01T05:05:16.546Z,0.00
2018-02-01T05:06:16.555Z,0.00
2018-02-01T05:07:16.592Z,0.00
2018-02-01T05:08:16.601Z,0.00
2018-02-01T05:09:16.613Z,0.00
2018-02-01T05:10:16.636Z,0.00
2018-02-01T05:11:16.654Z,0.00
2018-02-01T05:12:16.734Z,0.00
2018-02-01T05:13:16.705Z,0.00
2018-02-01T05:14:16.727Z,0.00
2018-02-01T05:15:16.748Z,0.00
2018-02-01T05:16:16.783Z,0.00
2018-02-01T05:17:16.789Z,0.00
2018-02-01T05:18:16.812Z,0.00
2018-02-01T05:19:16.833Z,0.00
2018-02-01T05:20:16.855Z,0.00
2018-02-01T05:21:16.893Z,0.00
2018-02-01T05:22:16.913Z,0.00
2018-02-01T05:23:16.927Z,0.00
2018-02-01T05:24:16.942Z,0.00
2018-02-01T05:25:16.961Z,0.00
2018-02-01T05:26:16.996Z,0.00
2018-02-01T05:27:17.012Z,0.00
2018-02-01T05:28:17.026Z,0.00
2018-02-01T05:29:17.054Z,0.00
2018-02-01T05:30:17.076Z,0.00
2018-02-01T05:31:17.089Z,0.00
2018-02-01T05:32:17.121Z,0.00
2018-02-01T05:33:17.143Z,0.00
2018-02-01T05:34:17.158Z,0.00
2018-02-01T05:35:17.177Z,0.00
2018-02-01T05:36:17.205Z,0.00
2018-02-01T05:37:17.230Z,0.00
2018-02-01T05:38:17.243Z,0.00
2018-02-01T05:39:17.269Z,0.00
2018-02-01T05:40:17.301Z,0.00
2018-02-01T05:41:17.312Z,0.00
2018-02-01T05:42:17.332Z,0.00
2018-02-01T05:43:17.357Z,0.00
2018-02-01T05:44:17.385Z,0.00
2018-02-01T05:45:17.392Z,0.00
2018-02-01T05:46:17.422Z,0.00
2018-02-01T05:47:17.438Z,0.00
2018-02-01T05:48:17.467Z,0.00
2018-02-01T05:49:17.476Z,0.00
2018-02-01T05:50:17.533Z,0.00
2018-02-01T05:51:17.533Z,0.00
2018-02-01T05:52:17.545Z,0.00
2018-02-01T05:53:17.580Z,0.00
2018-02-01T05:54:17.587Z,0.00
2018-02-01T05:55:17.612Z,0.00
2018-02-01T05:56:17.632Z,0.00
2018-02-01T05:57:17.653Z,0.00
2018-02-01T05:58:17.692Z,0.00
2018-02-01T05:59:17.708Z,0.00
2018-02-01T06:00:17.734Z,0.00
2018-02-01T06:01:17.742Z,0.00
2018-02-01T06:02:17.762Z,0.00
2018-02-01T06:03:17.783Z,0.00
2018-02-01T06:04:17.890Z,0.00
2018-02-01T06:05:17.839Z,0.00
2018-02-01T06:06:17.910Z,0.00
2018-02-01T06:07:17.876Z,0.00
2018-02-01T06:08:17.897Z,0.00
2018-02-01T06:09:17.922Z,0.00
2018-02-01T06:10:17.934Z,0.00
2018-02-01T06:11:17.958Z,0.00
2018-02-01T06:12:17.995Z,0.00
2018-02-01T06:13:18.009Z,0.00
2018-02-01T06:14:18.031Z,0.00
2018-02-01T06:15:18.042Z,0.00
2018-02-01T06:16:18.061Z,0.00
2018-02-01T06:17:18.099Z,0.00
2018-02-01T06:18:18.107Z,0.00
2018-02-01T06:19:18.154Z,0.00
2018-02-01T06:20:18.152Z,0.00
2018-02-01T06:21:18.190Z,0.00
2018-02-01T06:22:18.201Z,0.00
2018-02-01T06:23:18.239Z,0.00
2018-02-01T06:24:18.245Z,0.00
2018-02-01T06:25:18.257Z,4.00
2018-02-01T06:26:18.284Z,4.00
2018-02-01T06:27:18.309Z,0.00
2018-02-01T06:28:18.332Z,0.00
2018-02-01T06:29:18.350Z,4.00
2018-02-01T06:30:18.372Z,4.00
2018-02-01T06:31:18.384Z,4.00
2018-02-01T06:32:18.447Z,4.00
2018-02-01T06:33:18.453Z,4.00
2018-02-01T06:34:18.454Z,4.00
2018-02-01T06:35:18.481Z,4.00
2018-02-01T06:36:18.499Z,8.00
2018-02-01T06:37:18.521Z,8.00
2018-02-01T06:38:18.535Z,8.00
2018-02-01T06:39:18.559Z,12.00
2018-02-01T06:40:18.596Z,16.00
2018-02-01T06:41:18.600Z,16.00
2018-02-01T06:42:18.626Z,16.00
2018-02-01T06:43:18.685Z,20.00
2018-02-01T06:44:18.671Z,24.00
2018-02-01T06:45:18.685Z,28.00
2018-02-01T06:46:18.712Z,28.00
2018-02-01T06:47:18.746Z,28.00
2018-02-01T06:48:18.753Z,32.00
2018-02-01T06:49:18.781Z,36.00
2018-02-01T06:50:18.795Z,40.00
2018-02-01T06:51:18.822Z,48.00
2018-02-01T06:52:18.835Z,48.00
2018-02-01T06:53:18.860Z,52.00
2018-02-01T06:54:18.899Z,52.00
2018-02-01T06:55:18.933Z,60.00
2018-02-01T06:56:18.942Z,64.00
2018-02-01T06:57:18.954Z,72.00
2018-02-01T06:58:18.990Z,76.00
2018-02-01T06:59:18.983Z,80.00
2018-02-01T07:00:19.006Z,88.00
2018-02-01T07:01:19.054Z,88.00
2018-02-01T07:02:19.106Z,92.00
2018-02-01T07:03:19.086Z,96.00
2018-02-01T07:04:19.099Z,104.00
2018-02-01T07:05:19.114Z,112.00
2018-02-01T07:06:19.135Z,124.00
2018-02-01T07:07:19.158Z,132.00
2018-02-01T07:08:19.208Z,140.00
2018-02-01T07:09:19.222Z,152.00
2018-02-01T07:10:19.229Z,168.00
2018-02-01T07:11:19.247Z,172.00
2018-02-01T07:12:19.298Z,172.00
2018-02-01T07:13:19.293Z,180.00
2018-02-01T07:14:19.314Z,184.00
2018-02-01T07:15:19.336Z,192.00
2018-02-01T07:16:19.404Z,200.00
2018-02-01T07:17:19.372Z,212.00
2018-02-01T07:18:19.389Z,232.00
2018-02-01T07:19:19.432Z,268.00
2018-02-01T07:20:19.490Z,296.00
2018-02-01T07:21:19.464Z,296.00
2018-02-01T07:22:19.482Z,288.00
2018-02-01T07:23:19.513Z,300.00
2018-02-01T07:24:19.570Z,316.00
2018-02-01T07:25:19.538Z,300.00
2018-02-01T07:26:19.596Z,264.00
2018-02-01T07:27:19.590Z,244.00
2018-02-01T07:28:19.606Z,252.00
2018-02-01T07:29:19.642Z,272.00
2018-02-01T07:30:19.650Z,292.00
2018-02-01T07:31:19.679Z,312.00
2018-02-01T07:32:19.688Z,320.00
2018-02-01T07:33:19.719Z,292.00
2018-02-01T07:34:19.749Z,280.00
2018-02-01T07:35:19.752Z,288.00
2018-02-01T07:36:19.773Z,308.00
2018-02-01T07:37:19.803Z,332.00
2018-02-01T07:38:19.856Z,340.00
2018-02-01T07:39:19.839Z,328.00
2018-02-01T07:40:19.869Z,324.00
2018-02-01T07:41:19.885Z,332.00
2018-02-01T07:42:19.977Z,352.00
2018-02-01T07:43:19.939Z,368.00
2018-02-01T07:44:19.950Z,384.00
2018-02-01T07:45:19.974Z,416.00
2018-02-01T07:46:19.988Z,480.00
2018-02-01T07:47:20.022Z,484.00
2018-02-01T07:48:20.034Z,480.00
2018-02-01T07:49:20.056Z,500.00
2018-02-01T07:50:20.078Z,528.00
2018-02-01T07:51:20.093Z,592.00
2018-02-01T07:52:20.112Z,612.00
2018-02-01T07:53:20.145Z,604.00
2018-02-01T07:54:20.161Z,628.00
2018-02-01T07:55:20.274Z,632.00
2018-02-01T07:56:20.201Z,624.00
2018-02-01T07:57:20.221Z,628.00
2018-02-01T07:58:20.252Z,600.00
2018-02-01T07:59:20.270Z,560.00
2018-02-01T08:00:20.296Z,576.00
2018-02-01T08:01:20.307Z,600.00
2018-02-01T08:02:20.339Z,660.00
2018-02-01T08:03:20.348Z,720.00
2018-02-01T08:04:20.369Z,728.00
2018-02-01T08:05:20.405Z,752.00
2018-02-01T08:06:20.506Z,780.00
2018-02-01T08:07:20.462Z,832.00
2018-02-01T08:08:20.462Z,800.00
2018-02-01T08:09:20.488Z,808.00
2018-02-01T08:10:20.494Z,812.00
2018-02-01T08:11:20.526Z,792.00
2018-02-01T08:12:20.551Z,788.00
2018-02-01T08:13:20.571Z,800.00
2018-02-01T08:14:20.595Z,796.00
2018-02-01T08:15:20.603Z,792.00
2018-02-01T08:16:20.648Z,788.00
2018-02-01T08:17:20.645Z,752.00
2018-02-01T08:18:20.674Z,768.00
2018-02-01T08:19:20.696Z,848.00
2018-02-01T08:20:20.712Z,920.00
2018-02-01T08:21:20.744Z,940.00
2018-02-01T08:22:20.760Z,1024.00
2018-02-01T08:23:20.785Z,1212.00
2018-02-01T08:24:20.798Z,1368.00
2018-02-01T08:25:20.817Z,1408.00
2018-02-01T08:26:20.850Z,1440.00
2018-02-01T08:27:20.883Z,1496.00
2018-02-01T08:28:20.883Z,1488.00
2018-02-01T08:29:20.917Z,1484.00
2018-02-01T08:30:20.936Z,1504.00
2018-02-01T08:31:20.963Z,1476.00
2018-02-01T08:32:20.971Z,1532.00
2018-02-01T08:33:21.001Z,1572.00
2018-02-01T08:34:21.008Z,1536.00
2018-02-01T08:35:21.031Z,1524.00
2018-02-01T08:36:21.056Z,1432.00
2018-02-01T08:37:21.077Z,1316.00
2018-02-01T08:38:21.103Z,1300.00
2018-02-01T08:39:21.119Z,1312.00
2018-02-01T08:40:21.149Z,1280.00
2018-02-01T08:41:21.161Z,1332.00
2018-02-01T08:42:21.180Z,1328.00
2018-02-01T08:43:21.217Z,1368.00
2018-02-01T08:44:21.221Z,1436.00
2018-02-01T08:45:21.244Z,1460.00
2018-02-01T08:46:21.268Z,1584.00
2018-02-01T08:47:21.305Z,1640.00
2018-02-01T08:48:21.308Z,1620.00
2018-02-01T08:49:21.332Z,1524.00
2018-02-01T08:50:21.355Z,1532.00
2018-02-01T08:51:21.373Z,1608.00
2018-02-01T08:52:21.392Z,1728.00
2018-02-01T08:53:21.414Z,1820.00
2018-02-01T08:54:21.437Z,1772.00
2018-02-01T08:55:21.463Z,1848.00
2018-02-01T08:56:21.485Z,1932.00
2018-02-01T08:57:21.523Z,1992.00
2018-02-01T08:58:21.521Z,1948.00
2018-02-01T08:59:21.544Z,1956.00
2018-02-01T09:00:21.579Z,2020.00
2018-02-01T09:01:21.613Z,1960.00
2018-02-01T09:02:21.610Z,1952.00
2018-02-01T09:03:21.629Z,1916.00
2018-02-01T09:04:21.660Z,1908.00
2018-02-01T09:05:21.673Z,1820.00
2018-02-01T09:06:21.705Z,1872.00
2018-02-01T09:07:21.719Z,1992.00
2018-02-01T09:08:21.735Z,2020.00
2018-02-01T09:09:21.761Z,1952.00
2018-02-01T09:10:21.784Z,1952.00
2018-02-01T09:11:21.807Z,1876.00
2018-02-01T09:12:21.822Z,1760.00
2018-02-01T09:13:21.846Z,1768.00
2018-02-01T09:14:21.871Z,1824.00
2018-02-01T09:15:21.885Z,1696.00
2018-02-01T09:16:21.918Z,1564.00
2018-02-01T09:17:21.930Z,1576.00
2018-02-01T09:18:22.024Z,1592.00
2018-02-01T09:19:21.979Z,1564.00
2018-02-01T09:20:22.046Z,1396.00
2018-02-01T09:21:22.016Z,1316.00
2018-02-01T09:22:22.039Z,1340.00
2018-02-01T09:23:22.068Z,1372.00
2018-02-01T09:24:22.092Z,1308.00
2018-02-01T09:25:22.109Z,1196.00
2018-02-01T09:26:22.124Z,1268.00
2018-02-01T09:27:22.150Z,1400.00
2018-02-01T09:28:22.163Z,1464.00
2018-02-01T09:29:22.198Z,1492.00
2018-02-01T09:30:22.222Z,1408.00
2018-02-01T09:31:22.305Z,1260.00
2018-02-01T09:32:22.258Z,1132.00
2018-02-01T09:33:22.277Z,1200.00
2018-02-01T09:34:22.289Z,1192.00
2018-02-01T09:35:22.318Z,1224.00
2018-02-01T09:36:22.335Z,1176.00
2018-02-01T09:37:22.363Z,1240.00
2018-02-01T09:38:22.390Z,1344.00
2018-02-01T09:39:22.409Z,1376.00
2018-02-01T09:40:22.429Z,1352.00
2018-02-01T09:41:22.447Z,1380.00
2018-02-01T09:42:22.487Z,1408.00
2018-02-01T09:43:22.486Z,1424.00
2018-02-01T09:44:22.520Z,1468.00
2018-02-01T09:45:22.529Z,1452.00
2018-02-01T09:46:22.557Z,1496.00
2018-02-01T09:47:22.572Z,1476.00
2018-02-01T09:48:22.594Z,1552.00
2018-02-01T09:49:22.616Z,1604.00
2018-02-01T09:50:22.644Z,1532.00
2018-02-01T09:51:22.663Z,1480.00
2018-02-01T09:52:22.684Z,1496.00
2018-02-01T09:53:22.698Z,1520.00
2018-02-01T09:54:22.721Z,1576.00
2018-02-01T09:55:22.746Z,1548.00
2018-02-01T09:56:22.774Z,1592.00
2018-02-01T09:57:22.808Z,1560.00
2018-02-01T09:58:22.812Z,1492.00
2018-02-01T09:59:22.838Z,1576.00
2018-02-01T10:00:22.854Z,1720.00
2018-02-01T10:01:22.874Z,1836.00
2018-02-01T10:02:22.907Z,2276.00
2018-02-01T10:03:22.912Z,2604.00
2018-02-01T10:04:22.941Z,2480.00
2018-02-01T10:05:22.973Z,2528.00
2018-02-01T10:06:22.983Z,2604.00
2018-02-01T10:07:23.001Z,2616.00
2018-02-01T10:08:23.021Z,2516.00
2018-02-01T10:09:23.068Z,2188.00
2018-02-01T10:10:23.065Z,1904.00
2018-02-01T10:11:23.085Z,1892.00
2018-02-01T10:12:23.125Z,1944.00
2018-02-01T10:13:23.140Z,1820.00
2018-02-01T10:14:23.149Z,1768.00
2018-02-01T10:15:23.176Z,1812.00
2018-02-01T10:16:23.200Z,2020.00
2018-02-01T10:17:23.217Z,2200.00
2018-02-01T10:18:23.252Z,2384.00
2018-02-01T10:19:23.266Z,2520.00
2018-02-01T10:20:23.286Z,2432.00
2018-02-01T10:21:23.324Z,2188.00
2018-02-01T10:22:23.323Z,2004.00
2018-02-01T10:23:23.357Z,2188.00
2018-02-01T10:24:23.369Z,2456.00
2018-02-01T10:25:23.388Z,2996.00
2018-02-01T10:26:23.412Z,3192.00
2018-02-01T10:27:23.455Z,3144.00
2018-02-01T10:28:23.453Z,3428.00
2018-02-01T10:29:23.480Z,3708.00
2018-02-01T10:30:23.499Z,3996.00
2018-02-01T10:31:23.520Z,4296.00
2018-02-01T10:32:23.543Z,4304.00
2018-02-01T10:33:23.568Z,4360.00
2018-02-01T10:34:23.590Z,4684.00
2018-02-01T10:35:23.624Z,4696.00
2018-02-01T10:36:23.632Z,5356.00
2018-02-01T10:37:23.656Z,6344.00
2018-02-01T10:38:23.673Z,6764.00
2018-02-01T10:39:23.698Z,6804.00
2018-02-01T10:40:23.722Z,6996.00
2018-02-01T10:41:23.741Z,7356.00
2018-02-01T10:42:23.769Z,7152.00
2018-02-01T10:43:23.800Z,6792.00
2018-02-01T10:44:23.814Z,7568.00
2018-02-01T10:45:23.832Z,8980.00
2018-02-01T10:46:23.857Z,12136.00
2018-02-01T10:47:23.879Z,12648.00
2018-02-01T10:48:23.910Z,7860.00
2018-02-01T10:49:23.917Z,17856.00
2018-02-01T10:50:23.944Z,14376.00
2018-02-01T10:51:23.967Z,16896.00
2018-02-01T10:52:23.990Z,28448.00
2018-02-01T10:53:24.069Z,29408.00
2018-02-01T10:54:24.056Z,25728.00
2018-02-01T10:55:24.059Z,20000.00
2018-02-01T10:56:24.105Z,18624.00
2018-02-01T10:57:24.114Z,19712.00
2018-02-01T10:58:24.136Z,21248.00
2018-02-01T10:59:24.160Z,20832.00
2018-02-01T11:00:24.195Z,22496.00
2018-02-01T11:01:24.206Z,20832.00
2018-02-01T11:02:24.230Z,18048.00
2018-02-01T11:03:24.257Z,15872.00
2018-02-01T11:04:24.291Z,18784.00
2018-02-01T11:05:24.438Z,13588.00
2018-02-01T11:06:24.338Z,10576.00
2018-02-01T11:07:24.404Z,11316.00
2018-02-01T11:08:24.381Z,10212.00
2018-02-01T11:09:24.406Z,10488.00
2018-02-01T11:10:24.436Z,8184.00
2018-02-01T11:11:24.465Z,6456.00
2018-02-01T11:12:24.486Z,6336.00
2018-02-01T11:13:24.516Z,6548.00
2018-02-01T11:14:24.535Z,7660.00
2018-02-01T11:15:24.557Z,9804.00
2018-02-01T11:16:24.685Z,7860.00
2018-02-01T11:17:24.617Z,5088.00
2018-02-01T11:18:24.650Z,5864.00
2018-02-01T11:19:24.665Z,3292.00
2018-02-01T11:20:24.690Z,5924.00
2018-02-01T11:21:24.719Z,9204.00
2018-02-01T11:22:24.744Z,5200.00
2018-02-01T11:23:24.762Z,9212.00
2018-02-01T11:24:24.790Z,6272.00
2018-02-01T11:25:24.811Z,6388.00
2018-02-01T11:26:24.835Z,3540.00
2018-02-01T11:27:24.872Z,4124.00
2018-02-01T11:28:24.884Z,2584.00
2018-02-01T11:29:24.920Z,2864.00
2018-02-01T11:30:24.935Z,3456.00
2018-02-01T11:31:24.959Z,1752.00
2018-02-01T11:32:24.986Z,1756.00
2018-02-01T11:33:25.017Z,1352.00
2018-02-01T11:34:25.032Z,3128.00
2018-02-01T11:35:25.058Z,2076.00
2018-02-01T11:36:25.084Z,1692.00
2018-02-01T11:37:25.145Z,1248.00
2018-02-01T11:38:25.139Z,1512.00
2018-02-01T11:39:25.154Z,1228.00
2018-02-01T11:40:25.174Z,1040.00
2018-02-01T11:41:25.200Z,1956.00
2018-02-01T11:42:25.222Z,3440.00
2018-02-01T11:43:25.257Z,3144.00
2018-02-01T11:44:25.270Z,3124.00
2018-02-01T11:45:25.302Z,3312.00
2018-02-01T11:46:25.321Z,2996.00
2018-02-01T11:47:25.347Z,2600.00
2018-02-01T11:48:25.366Z,3636.00
2018-02-01T11:49:25.385Z,3920.00
2018-02-01T11:50:25.408Z,3820.00
2018-02-01T11:51:25.435Z,3540.00
2018-02-01T11:52:25.474Z,3320.00
2018-02-01T11:53:25.478Z,3312.00
2018-02-01T11:54:25.504Z,3632.00
2018-02-01T11:55:25.525Z,3708.00
2018-02-01T11:56:25.555Z,3820.00
2018-02-01T11:57:25.584Z,4340.00
2018-02-01T11:58:25.593Z,5608.00
2018-02-01T11:59:25.616Z,5852.00
2018-02-01T12:00:25.643Z,5676.00
2018-02-01T12:01:25.667Z,4860.00
2018-02-01T12:02:25.701Z,3808.00
2018-02-01T12:03:25.710Z,3532.00
2018-02-01T12:04:25.735Z,4960.00
2018-02-01T12:05:25.754Z,4076.00
2018-02-01T12:06:25.793Z,3388.00
2018-02-01T12:07:25.808Z,2636.00
2018-02-01T12:08:25.825Z,3068.00
2018-02-01T12:09:25.853Z,2744.00
2018-02-01T12:10:25.876Z,4252.00
2018-02-01T12:11:25.906Z,8632.00
2018-02-01T12:12:25.920Z,9528.00
2018-02-01T12:13:26.073Z,9008.00
2018-02-01T12:14:25.970Z,10872.00
2018-02-01T12:15:26.062Z,13708.00
2018-02-01T12:16:26.020Z,11980.00
2018-02-01T12:17:26.036Z,6776.00
2018-02-01T12:18:26.064Z,4196.00
2018-02-01T12:19:26.095Z,14592.00
2018-02-01T12:20:26.117Z,22112.00
2018-02-01T12:21:26.131Z,17664.00
2018-02-01T12:22:26.167Z,5340.00
2018-02-01T12:23:26.179Z,16064.00
2018-02-01T12:24:26.226Z,19552.00
2018-02-01T12:25:26.243Z,22976.00
2018-02-01T12:26:26.305Z,27168.00
2018-02-01T12:27:26.280Z,26496.00
2018-02-01T12:28:26.314Z,29792.00
2018-02-01T12:29:26.348Z,27968.00
2018-02-01T12:30:26.356Z,11268.00
2018-02-01T12:31:26.383Z,28992.00
2018-02-01T12:32:26.413Z,28576.00
2018-02-01T12:33:26.443Z,27168.00
2018-02-01T12:34:26.468Z,23360.00
2018-02-01T12:35:26.490Z,12092.00
2018-02-01T12:36:26.521Z,4888.00
2018-02-01T12:37:26.585Z,4412.00
2018-02-01T12:38:26.575Z,4044.00
2018-02-01T12:39:26.602Z,3172.00
2018-02-01T12:40:26.628Z,3620.00
2018-02-01T12:41:26.658Z,3728.00
2018-02-01T12:42:29.497Z,2944.00
2018-02-01T12:43:26.717Z,2432.00
2018-02-01T12:44:26.736Z,2044.00